createdAt,value
2022-12-22T00:01:30.251Z,14.10
2022-12-22T00:04:34.029Z,14.10
2022-12-22T00:07:37.829Z,14.10
2022-12-22T00:10:41.676Z,14.10
2022-12-22T00:13:45.717Z,14.00
2022-12-22T00:16:55.968Z,14.00
2022-12-22T00:19:59.825Z,14.20
2022-12-22T00:23:03.771Z,14.10
2022-12-22T00:26:07.812Z,14.00
2022-12-22T00:29:11.502Z,13.90
2022-12-22T00:32:15.518Z,13.90
2022-12-22T00:35:20.554Z,13.90
2022-12-22T00:38:42.699Z,13.90
2022-12-22T00:41:46.462Z,13.90
2022-12-22T00:44:50.420Z,13.90
2022-12-22T00:47:54.448Z,14.00
2022-12-22T00:50:58.393Z,14.00
2022-12-22T00:54:02.362Z,14.00
2022-12-22T00:57:06.141Z,13.90
2022-12-22T01:00:12.943Z,13.90
2022-12-22T01:03:16.812Z,15.00
2022-12-22T01:06:22.433Z,14.00
2022-12-22T01:09:28.985Z,14.00
2022-12-22T01:12:42.825Z,14.00
2022-12-22T01:15:47.921Z,14.00
2022-12-22T01:18:51.713Z,14.00
2022-12-22T01:21:55.602Z,14.00
2022-12-22T01:24:59.599Z,14.00
2022-12-22T01:28:03.486Z,14.00
2022-12-22T01:31:08.502Z,14.00
2022-12-22T01:34:12.415Z,14.10
2022-12-22T01:37:16.298Z,14.00
2022-12-22T01:40:20.235Z,14.00
2022-12-22T01:43:46.897Z,14.00
2022-12-22T01:47:00.909Z,13.90
2022-12-22T01:50:04.810Z,13.80
2022-12-22T01:53:08.618Z,13.80
2022-12-22T01:56:12.972Z,13.80
2022-12-22T01:59:21.047Z,13.90
2022-12-22T02:02:26.486Z,13.90
2022-12-22T02:05:34.620Z,13.90
2022-12-22T02:08:50.630Z,13.90
2022-12-22T02:12:16.613Z,14.00
2022-12-22T02:15:26.222Z,14.00
2022-12-22T02:18:48.927Z,14.00
2022-12-22T02:22:14.096Z,13.90
2022-12-22T02:25:25.356Z,13.90
2022-12-22T02:28:31.192Z,14.00
2022-12-22T02:31:35.035Z,13.90
2022-12-22T02:34:38.888Z,13.90
2022-12-22T02:38:05.118Z,13.80
2022-12-22T02:41:15.460Z,13.90
2022-12-22T02:44:48.749Z,13.90
2022-12-22T02:48:06.840Z,13.80
2022-12-22T02:51:24.528Z,13.90
2022-12-22T02:54:29.845Z,13.80
2022-12-22T02:57:37.347Z,13.70
2022-12-22T03:00:41.259Z,13.70
2022-12-22T03:03:45.177Z,13.70
2022-12-22T03:06:49.128Z,13.80
2022-12-22T03:09:52.956Z,13.90
2022-12-22T03:12:56.844Z,13.90
2022-12-22T03:16:00.638Z,13.80
2022-12-22T03:19:04.364Z,13.80
2022-12-22T03:22:08.275Z,13.80
2022-12-22T03:25:12.102Z,13.80
2022-12-22T03:28:05.392Z,13.90
2022-12-22T03:31:00.368Z,13.90
2022-12-22T03:33:45.683Z,13.80
2022-12-22T03:36:31.413Z,13.70
2022-12-22T03:39:17.171Z,13.70
2022-12-22T03:42:21.201Z,13.70
2022-12-22T03:45:27.232Z,13.80
2022-12-22T03:48:12.827Z,13.70
2022-12-22T03:50:58.259Z,13.80
2022-12-22T03:53:43.842Z,13.80
2022-12-22T03:56:29.552Z,13.80
2022-12-22T03:59:16.231Z,13.70
2022-12-22T04:02:01.927Z,13.80
2022-12-22T04:04:47.805Z,13.70
2022-12-22T04:07:33.610Z,13.60
2022-12-22T04:10:37.571Z,13.70
2022-12-22T04:13:22.949Z,13.70
2022-12-22T04:16:08.472Z,13.80
2022-12-22T04:18:57.738Z,13.80
2022-12-22T04:21:54.757Z,13.80
2022-12-22T04:24:44.827Z,12.40
2022-12-22T04:27:30.373Z,13.90
2022-12-22T04:30:16.154Z,13.90
2022-12-22T04:33:02.014Z,14.00
2022-12-22T04:35:47.571Z,14.10
2022-12-22T04:38:33.057Z,14.10
2022-12-22T04:41:18.696Z,14.10
2022-12-22T04:44:05.009Z,14.00
2022-12-22T04:46:50.641Z,14.00
2022-12-22T04:49:36.235Z,14.00
2022-12-22T04:52:21.823Z,13.90
2022-12-22T04:55:07.651Z,11.70
2022-12-22T04:57:52.998Z,14.00
2022-12-22T05:00:38.628Z,13.90
2022-12-22T05:03:24.515Z,13.90
2022-12-22T05:06:11.003Z,13.70
2022-12-22T05:08:56.437Z,13.80
2022-12-22T05:11:41.971Z,13.80
2022-12-22T05:14:27.381Z,13.70
2022-12-22T05:17:13.060Z,13.70
2022-12-22T05:19:58.587Z,13.80
2022-12-22T05:22:44.755Z,13.70
2022-12-22T05:25:34.903Z,13.70
2022-12-22T05:28:21.069Z,13.50
2022-12-22T05:31:09.027Z,13.40
2022-12-22T05:33:54.541Z,13.30
2022-12-22T05:36:39.992Z,13.30
2022-12-22T05:39:25.652Z,13.20
2022-12-22T05:42:11.147Z,13.20
2022-12-22T05:44:56.521Z,13.20
2022-12-22T05:47:47.333Z,13.20
2022-12-22T05:50:32.901Z,13.20
2022-12-22T05:53:22.854Z,13.20
2022-12-22T05:56:08.945Z,13.20
2022-12-22T05:58:54.443Z,13.20
2022-12-22T06:01:39.899Z,13.20
2022-12-22T06:04:25.379Z,13.20
2022-12-22T06:07:10.768Z,13.20
2022-12-22T06:09:56.183Z,13.20
2022-12-22T06:12:43.046Z,13.20
2022-12-22T06:15:28.880Z,13.20
2022-12-22T06:18:14.437Z,13.20
2022-12-22T06:21:00.022Z,13.50
2022-12-22T06:23:45.498Z,13.90
2022-12-22T06:26:31.061Z,14.10
2022-12-22T06:29:16.643Z,14.40
2022-12-22T06:32:02.402Z,14.60
2022-12-22T06:34:47.791Z,14.70
2022-12-22T06:37:33.284Z,14.80
2022-12-22T06:40:18.920Z,14.90
2022-12-22T06:43:10.745Z,15.00
2022-12-22T06:45:56.771Z,15.10
2022-12-22T06:48:42.455Z,15.10
2022-12-22T06:51:27.952Z,15.20
2022-12-22T06:54:13.635Z,15.20
2022-12-22T06:56:59.361Z,15.30
2022-12-22T06:59:44.809Z,15.40
2022-12-22T07:02:31.531Z,15.40
2022-12-22T07:05:17.680Z,15.40
2022-12-22T07:08:08.350Z,15.40
2022-12-22T07:11:00.876Z,15.40
2022-12-22T07:13:47.662Z,15.40
2022-12-22T07:16:33.960Z,15.50
2022-12-22T07:19:19.366Z,15.50
2022-12-22T07:22:04.810Z,15.50
2022-12-22T07:24:50.357Z,15.50
2022-12-22T07:27:35.868Z,15.50
2022-12-22T07:30:21.480Z,15.50
2022-12-22T07:33:06.933Z,15.50
2022-12-22T07:36:10.903Z,15.60
2022-12-22T07:38:56.594Z,15.60
2022-12-22T07:42:00.429Z,15.60
2022-12-22T07:44:45.886Z,15.60
2022-12-22T07:47:35.358Z,15.60
2022-12-22T07:50:32.437Z,15.60
2022-12-22T07:53:18.012Z,15.60
2022-12-22T07:56:05.228Z,15.60
2022-12-22T07:58:50.759Z,15.60
2022-12-22T08:01:36.611Z,15.60
2022-12-22T08:04:22.723Z,15.60
2022-12-22T08:07:08.571Z,15.70
2022-12-22T08:09:54.164Z,15.70
2022-12-22T08:12:40.456Z,15.70
2022-12-22T08:15:25.808Z,15.70
2022-12-22T08:18:11.474Z,15.70
2022-12-22T08:20:57.362Z,15.70
2022-12-22T08:23:42.926Z,15.70
2022-12-22T08:26:32.826Z,15.80
2022-12-22T08:29:32.394Z,15.80
2022-12-22T08:32:19.703Z,15.80
2022-12-22T08:35:06.561Z,15.80
2022-12-22T08:37:53.307Z,15.80
2022-12-22T08:40:39.343Z,15.80
2022-12-22T08:43:26.059Z,15.80
2022-12-22T08:46:11.602Z,15.90
2022-12-22T08:48:57.331Z,15.80
2022-12-22T08:51:43.395Z,15.80
2022-12-22T08:54:29.071Z,15.80
2022-12-22T08:57:14.583Z,15.80
2022-12-22T09:00:00.175Z,15.80
2022-12-22T09:02:46.095Z,15.80
2022-12-22T09:05:33.115Z,15.80
2022-12-22T09:08:18.670Z,15.90
2022-12-22T09:11:05.898Z,15.90
2022-12-22T09:13:54.038Z,15.90
2022-12-22T09:16:39.983Z,15.90
2022-12-22T09:19:25.499Z,15.90
2022-12-22T09:22:11.495Z,15.90
2022-12-22T09:25:00.372Z,15.90
2022-12-22T09:27:45.846Z,15.90
2022-12-22T09:30:31.749Z,15.90
2022-12-22T09:33:17.641Z,15.90
2022-12-22T09:36:12.068Z,15.90
2022-12-22T09:38:58.121Z,15.90
2022-12-22T09:41:43.695Z,16.00
2022-12-22T09:44:37.132Z,15.90
2022-12-22T09:47:37.570Z,16.00
2022-12-22T09:50:25.405Z,16.00
2022-12-22T09:53:21.025Z,16.00
2022-12-22T09:56:11.329Z,16.00
2022-12-22T09:58:58.275Z,16.00
2022-12-22T10:02:10.414Z,16.10
2022-12-22T10:05:00.643Z,16.10
2022-12-22T10:07:46.052Z,16.00
2022-12-22T10:10:32.173Z,16.10
2022-12-22T10:13:19.669Z,16.10
2022-12-22T10:16:19.910Z,16.10
2022-12-22T10:19:11.881Z,16.10
2022-12-22T10:22:19.958Z,16.10
2022-12-22T10:25:06.706Z,16.20
2022-12-22T10:27:52.792Z,16.20
2022-12-22T10:30:40.522Z,16.20
2022-12-22T10:33:34.709Z,16.20
2022-12-22T10:36:30.510Z,16.20
2022-12-22T10:39:26.841Z,17.00
2022-12-22T10:42:14.830Z,16.20
2022-12-22T10:45:00.469Z,16.20
2022-12-22T10:47:49.993Z,16.20
2022-12-22T10:50:45.568Z,16.20
2022-12-22T10:53:52.614Z,16.20
2022-12-22T10:56:38.173Z,16.20
2022-12-22T10:59:24.160Z,16.20
2022-12-22T11:02:22.646Z,16.20
2022-12-22T11:05:10.701Z,16.10
2022-12-22T11:07:57.204Z,16.10
2022-12-22T11:11:10.050Z,16.10
2022-12-22T11:14:11.264Z,16.10
2022-12-22T11:17:06.566Z,16.20
2022-12-22T11:20:16.989Z,16.10
2022-12-22T11:23:33.328Z,16.10
2022-12-22T11:26:37.095Z,16.10
2022-12-22T11:29:46.136Z,16.10
2022-12-22T11:32:43.811Z,16.10
2022-12-22T11:35:42.451Z,16.10
2022-12-22T11:38:30.871Z,16.20
2022-12-22T11:41:28.878Z,16.20
2022-12-22T11:44:41.379Z,16.30
2022-12-22T11:47:45.403Z,16.30
2022-12-22T11:51:02.140Z,16.30
2022-12-22T11:54:08.838Z,16.30
2022-12-22T11:57:22.627Z,16.40
2022-12-22T12:00:14.406Z,16.40
2022-12-22T12:03:36.266Z,16.30
2022-12-22T12:06:34.675Z,16.40
2022-12-22T12:09:26.525Z,16.40
2022-12-22T12:12:20.865Z,16.40
2022-12-22T12:15:15.796Z,16.40
2022-12-22T12:18:45.891Z,16.40
2022-12-22T12:21:46.548Z,16.40
2022-12-22T12:24:42.520Z,16.40
2022-12-22T12:27:54.326Z,16.40
2022-12-22T12:31:01.093Z,16.40
2022-12-22T12:33:55.997Z,16.30
2022-12-22T12:37:15.224Z,16.30
2022-12-22T12:40:11.519Z,16.30
2022-12-22T12:42:58.793Z,16.20
2022-12-22T12:45:47.426Z,16.20
2022-12-22T12:48:36.705Z,16.20
2022-12-22T12:51:49.474Z,16.20
2022-12-22T12:54:48.310Z,16.20
2022-12-22T12:57:47.841Z,16.20
2022-12-22T13:00:33.842Z,16.20
2022-12-22T13:04:01.080Z,16.20
2022-12-22T13:06:56.027Z,16.30
2022-12-22T13:10:17.920Z,16.30
2022-12-22T13:13:04.477Z,16.30
2022-12-22T13:16:15.961Z,16.30
2022-12-22T13:19:10.188Z,16.30
2022-12-22T13:21:57.865Z,16.30
2022-12-22T13:24:48.861Z,16.30
2022-12-22T13:27:37.075Z,16.30
2022-12-22T13:30:23.040Z,16.40
2022-12-22T13:33:15.962Z,16.40
2022-12-22T13:36:02.934Z,16.50
2022-12-22T13:39:02.508Z,16.50
2022-12-22T13:41:50.319Z,16.50
2022-12-22T13:44:38.032Z,16.50
2022-12-22T13:47:25.348Z,16.50
2022-12-22T13:50:23.739Z,16.50
2022-12-22T13:53:34.316Z,16.50
2022-12-22T13:56:36.927Z,16.40
2022-12-22T13:59:29.702Z,19.00
2022-12-22T14:02:18.455Z,16.40
2022-12-22T14:05:15.558Z,16.40
2022-12-22T14:08:06.828Z,16.40
2022-12-22T14:10:54.389Z,16.40
2022-12-22T14:13:40.270Z,16.40
2022-12-22T14:16:25.797Z,16.40
2022-12-22T14:19:15.506Z,16.40
2022-12-22T14:22:12.049Z,16.40
2022-12-22T14:25:15.044Z,16.40
2022-12-22T14:28:01.569Z,16.40
2022-12-22T14:30:53.025Z,16.40
2022-12-22T14:33:38.712Z,16.30
2022-12-22T14:36:26.734Z,16.30
2022-12-22T14:39:23.769Z,16.30
2022-12-22T14:42:13.847Z,16.30
2022-12-22T14:45:00.182Z,16.30
2022-12-22T14:47:45.766Z,16.20
2022-12-22T14:50:31.607Z,16.30
2022-12-22T14:53:25.299Z,16.20
2022-12-22T14:56:17.547Z,16.20
2022-12-22T14:59:23.901Z,16.20
2022-12-22T15:02:34.978Z,16.20
2022-12-22T15:05:26.222Z,16.10
2022-12-22T15:08:38.795Z,16.10
2022-12-22T15:11:24.777Z,16.10
2022-12-22T15:14:13.699Z,16.10
2022-12-22T15:17:01.971Z,16.10
2022-12-22T15:19:47.880Z,16.10
2022-12-22T15:22:33.402Z,16.00
2022-12-22T15:25:24.649Z,16.00
2022-12-22T15:28:10.426Z,16.00
2022-12-22T15:30:55.865Z,16.00
2022-12-22T15:33:41.926Z,16.00
2022-12-22T15:36:28.045Z,15.90
2022-12-22T15:39:15.780Z,15.90
2022-12-22T15:42:01.622Z,15.90
2022-12-22T15:44:47.136Z,15.90
2022-12-22T15:47:32.508Z,15.90
2022-12-22T15:50:21.819Z,15.90
2022-12-22T15:53:11.459Z,15.80
2022-12-22T15:55:58.688Z,15.90
2022-12-22T15:58:44.310Z,15.80
2022-12-22T16:01:30.047Z,15.80
2022-12-22T16:04:15.698Z,15.80
2022-12-22T16:07:01.356Z,15.80
2022-12-22T16:09:48.629Z,15.80
2022-12-22T16:12:34.665Z,15.80
2022-12-22T16:15:21.797Z,15.80
2022-12-22T16:18:10.723Z,15.80
2022-12-22T16:20:57.941Z,15.80
2022-12-22T16:23:46.650Z,15.80
2022-12-22T16:26:32.291Z,15.80
2022-12-22T16:29:22.953Z,15.80
2022-12-22T16:32:21.120Z,15.80
2022-12-22T16:35:09.900Z,15.80
2022-12-22T16:37:56.776Z,15.70
2022-12-22T16:40:48.965Z,15.70
2022-12-22T16:46:42.224Z,15.70
2022-12-22T16:49:27.804Z,15.80
2022-12-22T16:52:20.420Z,15.80
2022-12-22T16:55:20.012Z,15.80
2022-12-22T16:58:12.887Z,15.80
2022-12-22T17:00:59.083Z,15.80
2022-12-22T17:03:44.739Z,15.80
2022-12-22T17:06:30.425Z,15.80
2022-12-22T17:09:21.854Z,15.90
2022-12-22T17:12:09.825Z,15.90
2022-12-22T17:14:57.785Z,15.90
2022-12-22T17:17:43.689Z,15.90
2022-12-22T17:20:30.218Z,15.90
2022-12-22T17:23:27.051Z,15.90
2022-12-22T17:26:16.390Z,15.90
2022-12-22T17:29:02.500Z,15.90
2022-12-22T17:31:50.110Z,16.00
2022-12-22T17:34:35.734Z,15.90
2022-12-22T17:37:23.906Z,16.00
2022-12-22T17:40:23.877Z,15.90
2022-12-22T17:43:14.658Z,16.00
2022-12-22T17:46:00.273Z,16.00
2022-12-22T17:48:46.391Z,16.00
2022-12-22T17:51:31.859Z,16.00
2022-12-22T17:54:27.885Z,16.00
2022-12-22T17:57:25.811Z,16.00
2022-12-22T18:00:26.882Z,16.00
2022-12-22T18:03:15.925Z,16.00
2022-12-22T18:06:01.579Z,16.00
2022-12-22T18:08:48.144Z,16.10
2022-12-22T18:11:34.271Z,16.00
2022-12-22T18:14:22.164Z,16.00
2022-12-22T18:17:24.761Z,16.10
2022-12-22T18:20:23.045Z,16.00
2022-12-22T18:23:23.670Z,16.00
2022-12-22T18:26:18.486Z,16.10
2022-12-22T18:29:04.217Z,16.00
2022-12-22T18:31:50.057Z,16.10
2022-12-22T18:34:37.461Z,16.00
2022-12-22T18:37:22.937Z,16.00
2022-12-22T18:40:28.759Z,16.00
2022-12-22T18:43:14.706Z,16.00
2022-12-22T18:46:00.538Z,16.00
2022-12-22T18:48:46.259Z,15.90
2022-12-22T18:51:32.703Z,15.90
2022-12-22T18:54:32.513Z,15.90
2022-12-22T18:57:20.015Z,15.80
2022-12-22T19:00:11.575Z,15.90
2022-12-22T19:03:01.308Z,15.80
2022-12-22T19:05:47.709Z,15.80
2022-12-22T19:08:33.425Z,15.90
2022-12-22T19:11:27.360Z,15.80
2022-12-22T19:14:20.814Z,15.90
2022-12-22T19:17:14.335Z,15.90
2022-12-22T19:19:59.857Z,15.90
2022-12-22T19:22:45.856Z,15.90
2022-12-22T19:25:32.624Z,16.10
2022-12-22T19:28:37.749Z,15.90
2022-12-22T19:31:26.636Z,16.00
2022-12-22T19:34:19.021Z,16.00
2022-12-22T19:37:04.396Z,16.00
2022-12-22T19:39:49.886Z,16.00
2022-12-22T19:42:37.009Z,16.00
2022-12-22T19:45:37.126Z,16.00
2022-12-22T19:48:25.786Z,16.10
2022-12-22T19:51:17.351Z,16.10
2022-12-22T19:54:03.568Z,16.10
2022-12-22T19:56:52.296Z,16.10
2022-12-22T19:59:41.417Z,16.20
2022-12-22T20:02:32.850Z,16.10
2022-12-22T20:05:24.650Z,16.10
2022-12-22T20:08:10.227Z,16.10
2022-12-22T20:10:59.006Z,16.20
2022-12-22T20:13:45.951Z,16.10
2022-12-22T20:16:31.494Z,16.10
2022-12-22T20:19:17.056Z,16.10
2022-12-22T20:22:02.593Z,16.10
2022-12-22T20:24:50.095Z,16.10
2022-12-22T20:27:36.311Z,16.00
2022-12-22T20:30:28.123Z,16.10
2022-12-22T20:33:15.425Z,16.00
2022-12-22T20:36:02.835Z,16.00
2022-12-22T20:38:49.446Z,16.00
2022-12-22T20:41:34.855Z,16.00
2022-12-22T20:44:20.429Z,16.00
2022-12-22T20:47:06.020Z,16.00
2022-12-22T20:49:51.687Z,15.90
2022-12-22T20:52:37.335Z,16.00
2022-12-22T20:55:26.584Z,15.90
2022-12-22T20:58:22.554Z,15.90
2022-12-22T21:01:08.280Z,15.90
2022-12-22T21:03:53.862Z,15.90
2022-12-22T21:06:45.335Z,16.00
2022-12-22T21:09:30.929Z,15.90
2022-12-22T21:12:17.640Z,16.00
2022-12-22T21:15:03.717Z,16.00
2022-12-22T21:17:55.988Z,16.00
2022-12-22T21:20:44.627Z,16.00
2022-12-22T21:23:30.318Z,16.00
2022-12-22T21:26:27.423Z,16.00
2022-12-22T21:29:23.830Z,16.00
2022-12-22T21:32:14.650Z,16.00
2022-12-22T21:35:05.877Z,16.00
2022-12-22T21:37:54.861Z,16.00
2022-12-22T21:40:40.473Z,16.00
2022-12-22T21:43:26.285Z,16.00
2022-12-22T21:46:13.093Z,16.00
2022-12-22T21:48:58.905Z,16.00
2022-12-22T21:51:44.505Z,16.00
2022-12-22T21:54:29.982Z,16.10
2022-12-22T21:57:18.126Z,16.00
2022-12-22T22:00:04.200Z,16.00
2022-12-22T22:02:51.506Z,16.00
2022-12-22T22:05:38.936Z,16.00
2022-12-22T22:08:25.167Z,16.00
2022-12-22T22:11:18.502Z,16.10
2022-12-22T22:14:03.820Z,16.10
2022-12-22T22:16:49.548Z,16.10
2022-12-22T22:19:35.131Z,16.10
2022-12-22T22:22:21.583Z,16.10
2022-12-22T22:25:08.015Z,16.10
2022-12-22T22:27:53.849Z,16.10
2022-12-22T22:30:41.967Z,16.10
2022-12-22T22:33:27.429Z,16.10
2022-12-22T22:36:13.810Z,16.10
2022-12-22T22:38:59.203Z,16.10
2022-12-22T22:41:44.834Z,16.10
2022-12-22T22:44:30.278Z,16.10
2022-12-22T22:47:15.923Z,15.90
2022-12-22T22:50:01.869Z,15.60
2022-12-22T22:52:47.971Z,15.40
2022-12-22T22:55:33.810Z,15.10
2022-12-22T22:58:19.245Z,14.80
2022-12-22T23:01:11.326Z,14.50
2022-12-22T23:03:56.873Z,14.50
2022-12-22T23:06:42.866Z,14.30
2022-12-22T23:09:28.426Z,14.20
2022-12-22T23:12:14.153Z,14.10
2022-12-22T23:15:01.880Z,14.00
2022-12-22T23:17:47.426Z,13.90
2022-12-22T23:20:32.961Z,14.00
2022-12-22T23:23:18.790Z,14.00
2022-12-22T23:26:04.872Z,14.00
2022-12-22T23:28:51.317Z,14.00
2022-12-22T23:31:37.080Z,14.00
2022-12-22T23:34:22.520Z,14.00
2022-12-22T23:37:12.147Z,14.00
2022-12-22T23:40:25.119Z,14.10
2022-12-22T23:43:08.304Z,14.00
2022-12-22T23:45:53.727Z,13.90
2022-12-22T23:48:40.019Z,13.90
2022-12-22T23:51:28.125Z,14.00
2022-12-22T23:54:13.813Z,13.90
2022-12-22T23:56:59.421Z,13.90
2022-12-22T23:59:44.982Z,13.90
